Time;durP1;ratioP1;P1;durP2;ratioP2;P2;SDS_P1;SDS_P2;PMS_P1;PMS_P2;Temp;Humidity;BMP_temperature;BMP_pressure;BME280_temperature;BME280_humidity;BME280_pressure;Samples;Min_cycle;Max_cycle;Signal;HPM_P1;HPM_P2
2022/04/07 00:00:36;;;;;;;7.40;5.37;;;;;;;;;;5035442;28;20562;-48
2022/04/07 00:03:02;;;;;;;5.50;5.00;;;;;;;;;;5035376;28;20501;-50
2022/04/07 00:05:28;;;;;;;5.53;4.80;;;;;;;;;;5035679;28;21149;-46
2022/04/07 00:07:54;;;;;;;4.33;3.93;;;;;;;;;;5035516;28;20759;-46
2022/04/07 00:10:21;;;;;;;5.40;4.90;;;;;;;;;;5035209;28;20845;-46
2022/04/07 00:12:47;;;;;;;4.23;3.83;;;;;;;;;;5035305;28;20417;-46
2022/04/07 00:15:13;;;;;;;7.00;4.90;;;;;;;;;;5035429;28;20473;-46
2022/04/07 00:17:39;;;;;;;5.57;5.00;;;;;;;;;;5035242;28;20412;-47
2022/04/07 00:20:05;;;;;;;5.60;4.00;;;;;;;;;;5034974;28;20458;-46
2022/04/07 00:22:31;;;;;;;4.47;4.13;;;;;;;;;;5035224;28;20462;-47
2022/04/07 00:24:57;;;;;;;4.17;3.27;;;;;;;;;;5035173;28;20416;-47
2022/04/07 00:27:23;;;;;;;3.93;3.70;;;;;;;;;;5035215;28;20417;-46
2022/04/07 00:29:49;;;;;;;3.77;3.13;;;;;;;;;;5034847;28;20473;-47
2022/04/07 00:32:15;;;;;;;3.87;2.80;;;;;;;;;;5034831;28;20761;-47
2022/04/07 00:34:44;;;;;;;2.80;2.60;;;;;;;;;;5034938;28;20431;-46
2022/04/07 00:37:10;;;;;;;3.03;2.83;;;;;;;;;;5035049;28;20399;-47
2022/04/07 00:39:36;;;;;;;5.70;2.33;;;;;;;;;;5034685;28;20463;-47
2022/04/07 00:42:02;;;;;;;2.77;2.57;;;;;;;;;;5034800;28;20981;-47
2022/04/07 00:44:28;;;;;;;2.90;2.77;;;;;;;;;;5034796;28;20428;-50
2022/04/07 00:46:54;;;;;;;2.80;2.13;;;;;;;;;;5034576;28;20459;-48
2022/04/07 00:49:20;;;;;;;5.00;2.47;;;;;;;;;;5034119;28;20541;-48
2022/04/07 00:51:46;;;;;;;2.53;2.30;;;;;;;;;;5033680;28;20809;-50
2022/04/07 00:54:13;;;;;;;2.63;2.43;;;;;;;;;;5033383;28;20448;-48
2022/04/07 00:56:41;;;;;;;2.70;2.50;;;;;;;;;;5033485;28;20408;-48
2022/04/07 00:59:07;;;;;;;2.50;2.30;;;;;;;;;;5033460;28;20400;-50
2022/04/07 01:01:34;;;;;;;3.43;3.13;;;;;;;;;;5032519;28;20853;-48
2022/04/07 01:04:00;;;;;;;3.67;2.87;;;;;;;;;;5032730;28;20956;-48
2022/04/07 01:06:27;;;;;;;5.60;3.60;;;;;;;;;;5033019;28;20404;-48
2022/04/07 01:08:53;;;;;;;3.23;2.90;;;;;;;;;;5032046;28;20933;-48
2022/04/07 01:11:19;;;;;;;4.07;2.93;;;;;;;;;;5032973;28;20431;-49
2022/04/07 01:13:45;;;;;;;3.37;3.17;;;;;;;;;;5033038;28;20761;-48
2022/04/07 01:16:11;;;;;;;6.47;3.80;;;;;;;;;;5032911;28;20454;-48
2022/04/07 01:18:38;;;;;;;5.20;3.23;;;;;;;;;;5033111;28;20431;-49
2022/04/07 01:21:04;;;;;;;4.33;3.67;;;;;;;;;;5032803;28;20484;-47
2022/04/07 01:23:34;;;;;;;5.90;3.70;;;;;;;;;;5033009;28;21071;-47
2022/04/07 01:26:01;;;;;;;2.80;2.60;;;;;;;;;;5033006;28;20412;-47
2022/04/07 01:28:27;;;;;;;5.87;3.30;;;;;;;;;;5032864;28;20415;-48
2022/04/07 01:30:53;;;;;;;8.13;3.10;;;;;;;;;;5032501;28;20463;-48
2022/04/07 01:33:19;;;;;;;2.80;2.60;;;;;;;;;;5032716;28;20423;-48
2022/04/07 01:35:45;;;;;;;5.00;3.10;;;;;;;;;;5032813;28;20399;-48
2022/04/07 01:38:11;;;;;;;7.60;2.60;;;;;;;;;;5032770;28;20397;-47
2022/04/07 01:40:37;;;;;;;4.40;3.00;;;;;;;;;;5032546;28;20459;-49
2022/04/07 01:43:07;;;;;;;3.90;2.50;;;;;;;;;;5032444;28;20481;-48
2022/04/07 01:45:33;;;;;;;3.07;2.30;;;;;;;;;;5032610;28;20397;-49
2022/04/07 01:48:00;;;;;;;4.23;2.33;;;;;;;;;;5032654;28;20926;-48
2022/04/07 01:50:26;;;;;;;2.87;2.20;;;;;;;;;;4996004;28;1063057;-47
2022/04/07 01:52:53;;;;;;;5.30;2.40;;;;;;;;;;5033453;28;20670;-47
2022/04/07 01:55:19;;;;;;;6.23;3.50;;;;;;;;;;5033521;28;20407;-48
2022/04/07 01:57:48;;;;;;;5.13;2.30;;;;;;;;;;5033248;28;20402;-47
2022/04/07 02:00:14;;;;;;;7.17;2.17;;;;;;;;;;5033130;28;20953;-47
2022/04/07 02:02:40;;;;;;;2.40;2.20;;;;;;;;;;5033278;28;20409;-47
2022/04/07 02:05:11;;;;;;;3.63;2.00;;;;;;;;;;5033375;28;20402;-47
2022/04/07 02:07:37;;;;;;;5.57;2.00;;;;;;;;;;5033358;28;20899;-47
2022/04/07 02:10:04;;;;;;;2.20;2.00;;;;;;;;;;5032878;28;20463;-48
2022/04/07 02:12:30;;;;;;;4.43;2.10;;;;;;;;;;5032857;28;20420;-47
2022/04/07 02:14:56;;;;;;;5.70;2.13;;;;;;;;;;5033108;28;20402;-47
2022/04/07 02:17:23;;;;;;;5.97;2.27;;;;;;;;;;5033039;28;20779;-47
2022/04/07 02:19:58;;;;;;;2.07;1.97;;;;;;;;;;5032095;28;20405;-47
2022/04/07 02:22:28;;;;;;;4.07;2.03;;;;;;;;;;5032826;28;20496;-47
2022/04/07 02:24:54;;;;;;;3.33;2.53;;;;;;;;;;5032776;28;20403;-47
2022/04/07 02:27:27;;;;;;;2.30;2.00;;;;;;;;;;5032900;28;20765;-48
2022/04/07 02:29:53;;;;;;;5.00;2.27;;;;;;;;;;5032553;28;21008;-47
2022/04/07 02:32:19;;;;;;;2.20;2.00;;;;;;;;;;5032774;28;20395;-48
2022/04/07 02:34:45;;;;;;;4.53;3.00;;;;;;;;;;5032629;28;20416;-48
2022/04/07 02:37:11;;;;;;;3.43;2.43;;;;;;;;;;5032638;28;20904;-47
2022/04/07 02:39:37;;;;;;;3.50;2.60;;;;;;;;;;5032305;28;20433;-48
2022/04/07 02:42:03;;;;;;;4.60;2.77;;;;;;;;;;5032521;28;20829;-48
2022/04/07 02:44:29;;;;;;;8.10;2.80;;;;;;;;;;5032471;28;20435;-48
2022/04/07 02:46:55;;;;;;;3.53;2.60;;;;;;;;;;5032552;28;20412;-49
2022/04/07 02:49:21;;;;;;;3.10;2.47;;;;;;;;;;5032015;28;20468;-48
2022/04/07 02:51:47;;;;;;;3.20;2.50;;;;;;;;;;5032381;28;20405;-47
2022/04/07 02:54:13;;;;;;;2.73;2.43;;;;;;;;;;5032257;28;20423;-47
2022/04/07 02:56:39;;;;;;;2.30;2.20;;;;;;;;;;5032441;28;20481;-47
2022/04/07 02:59:05;;;;;;;5.40;3.50;;;;;;;;;;5032361;28;20447;-48
2022/04/07 03:01:31;;;;;;;2.90;2.37;;;;;;;;;;5032452;28;20411;-48
2022/04/07 03:03:57;;;;;;;5.00;2.60;;;;;;;;;;5032510;28;20427;-48
2022/04/07 03:06:23;;;;;;;3.20;2.90;;;;;;;;;;5032218;28;20432;-48
2022/04/07 03:08:50;;;;;;;3.33;2.87;;;;;;;;;;5032102;28;20547;-48
2022/04/07 03:11:16;;;;;;;6.80;2.43;;;;;;;;;;5031911;28;20404;-48
2022/04/07 03:13:42;;;;;;;3.30;2.20;;;;;;;;;;5031973;28;20824;-48
2022/04/07 03:16:08;;;;;;;3.97;3.17;;;;;;;;;;5032083;28;20402;-48
2022/04/07 03:18:35;;;;;;;3.83;2.93;;;;;;;;;;5032057;28;20401;-48
2022/04/07 03:21:01;;;;;;;3.20;2.60;;;;;;;;;;5031638;28;20408;-48
2022/04/07 03:23:27;;;;;;;4.00;2.90;;;;;;;;;;5032013;28;20432;-47
2022/04/07 03:25:53;;;;;;;9.33;2.60;;;;;;;;;;5031939;28;20443;-48
2022/04/07 03:28:19;;;;;;;3.07;2.40;;;;;;;;;;5031902;28;20405;-48
2022/04/07 03:30:45;;;;;;;2.20;1.83;;;;;;;;;;5031502;28;20862;-47
2022/04/07 03:33:11;;;;;;;3.70;2.20;;;;;;;;;;5031661;28;20432;-46
2022/04/07 03:35:37;;;;;;;3.37;2.20;;;;;;;;;;5031723;28;20412;-48
2022/04/07 03:38:06;;;;;;;2.43;2.20;;;;;;;;;;5031762;28;20891;-47
2022/04/07 03:40:35;;;;;;;3.80;2.00;;;;;;;;;;5031534;28;20536;-48
2022/04/07 03:43:02;;;;;;;4.50;1.80;;;;;;;;;;5031663;28;20570;-49
2022/04/07 03:45:28;;;;;;;5.90;1.77;;;;;;;;;;5031702;28;20408;-47
2022/04/07 03:47:54;;;;;;;2.73;2.00;;;;;;;;;;5031802;28;20973;-47
2022/04/07 03:50:20;;;;;;;5.23;2.00;;;;;;;;;;5031078;28;20953;-48
2022/04/07 03:52:46;;;;;;;4.60;2.53;;;;;;;;;;5031457;28;20505;-48
2022/04/07 03:55:12;;;;;;;1.83;1.73;;;;;;;;;;5031756;28;20490;-48
2022/04/07 03:57:38;;;;;;;3.30;2.23;;;;;;;;;;5031555;28;20404;-47
2022/04/07 04:00:10;;;;;;;2.17;1.60;;;;;;;;;;5030933;28;20409;-48
2022/04/07 04:02:36;;;;;;;3.00;2.13;;;;;;;;;;5027995;28;20428;-47
2022/04/07 04:05:02;;;;;;;3.17;2.10;;;;;;;;;;5031541;28;20408;-47
2022/04/07 04:07:28;;;;;;;2.33;1.67;;;;;;;;;;5031605;28;20434;-47
2022/04/07 04:09:54;;;;;;;3.20;1.70;;;;;;;;;;5031158;28;20941;-47
2022/04/07 04:12:20;;;;;;;4.27;1.90;;;;;;;;;;5031345;28;20456;-47
2022/04/07 04:14:46;;;;;;;4.60;1.63;;;;;;;;;;5031885;28;20429;-49
2022/04/07 04:17:12;;;;;;;2.10;1.93;;;;;;;;;;5031361;28;20406;-49
2022/04/07 04:19:38;;;;;;;3.77;2.13;;;;;;;;;;5031409;28;20405;-48
2022/04/07 04:22:04;;;;;;;6.20;1.90;;;;;;;;;;5031334;28;20404;-48
2022/04/07 04:24:30;;;;;;;4.23;2.13;;;;;;;;;;5031336;28;20483;-48
2022/04/07 04:26:56;;;;;;;3.00;1.73;;;;;;;;;;5031325;28;20409;-48
2022/04/07 04:29:22;;;;;;;8.37;1.90;;;;;;;;;;5030960;28;20454;-49
2022/04/07 04:31:48;;;;;;;8.13;2.10;;;;;;;;;;5031479;28;20399;-49
2022/04/07 04:34:14;;;;;;;3.43;1.80;;;;;;;;;;5031218;28;20418;-48
2022/04/07 04:36:39;;;;;;;2.13;2.03;;;;;;;;;;5031281;28;20455;-49
2022/04/07 04:39:05;;;;;;;3.63;1.80;;;;;;;;;;5031217;28;20398;-50
2022/04/07 04:41:32;;;;;;;6.20;1.83;;;;;;;;;;5031065;28;20411;-49
2022/04/07 04:44:00;;;;;;;2.80;2.17;;;;;;;;;;5033161;28;20418;-49
2022/04/07 04:46:26;;;;;;;4.83;1.90;;;;;;;;;;5034841;28;20408;-49
2022/04/07 04:48:52;;;;;;;2.90;1.70;;;;;;;;;;5034666;28;20409;-48
2022/04/07 04:51:18;;;;;;;6.70;2.17;;;;;;;;;;5034572;28;20411;-48
2022/04/07 04:53:44;;;;;;;5.10;2.63;;;;;;;;;;5034615;28;20434;-49
2022/04/07 04:56:09;;;;;;;4.77;2.97;;;;;;;;;;5034571;28;20760;-49
2022/04/07 04:58:35;;;;;;;4.67;3.47;;;;;;;;;;5034499;28;20429;-48
2022/04/07 05:01:01;;;;;;;6.40;3.47;;;;;;;;;;5034388;28;20410;-48
2022/04/07 05:03:27;;;;;;;4.80;3.57;;;;;;;;;;5034369;28;20965;-49
2022/04/07 05:05:53;;;;;;;4.00;3.30;;;;;;;;;;5034870;28;20628;-48
2022/04/07 05:08:19;;;;;;;4.50;3.70;;;;;;;;;;5033874;28;20525;-48
2022/04/07 05:10:45;;;;;;;5.70;4.03;;;;;;;;;;5033615;28;20567;-48
2022/04/07 05:13:11;;;;;;;6.00;4.20;;;;;;;;;;5033540;28;20948;-49
2022/04/07 05:15:39;;;;;;;7.23;3.80;;;;;;;;;;5034071;28;20881;-48
2022/04/07 05:18:05;;;;;;;3.80;3.50;;;;;;;;;;5033838;28;20405;-48
2022/04/07 05:20:31;;;;;;;5.70;3.80;;;;;;;;;;5033450;28;20448;-47
2022/04/07 05:22:57;;;;;;;4.40;3.20;;;;;;;;;;5033643;28;20457;-48
2022/04/07 05:25:23;;;;;;;3.23;2.83;;;;;;;;;;5033846;28;20880;-48
2022/04/07 05:27:49;;;;;;;3.53;3.23;;;;;;;;;;5034179;28;21114;-50
2022/04/07 05:30:15;;;;;;;3.83;3.47;;;;;;;;;;5033866;28;20551;-50
2022/04/07 05:32:45;;;;;;;3.20;2.90;;;;;;;;;;5033843;28;20411;-50
2022/04/07 05:35:11;;;;;;;3.37;3.07;;;;;;;;;;5033888;28;20401;-48
2022/04/07 05:37:37;;;;;;;3.27;3.00;;;;;;;;;;5034038;28;20483;-48
2022/04/07 05:40:04;;;;;;;3.67;2.40;;;;;;;;;;5033704;28;20919;-49
2022/04/07 05:42:30;;;;;;;3.20;3.00;;;;;;;;;;5033653;28;20449;-49
2022/04/07 05:44:56;;;;;;;3.50;2.90;;;;;;;;;;5033848;28;20442;-50
2022/04/07 05:47:21;;;;;;;3.47;3.17;;;;;;;;;;5033742;28;20475;-50
2022/04/07 05:49:47;;;;;;;7.33;2.87;;;;;;;;;;5033312;28;20460;-49
2022/04/07 05:52:13;;;;;;;3.90;3.53;;;;;;;;;;5033650;28;20492;-48
2022/04/07 05:54:40;;;;;;;2.93;2.73;;;;;;;;;;5032287;28;21033;-47
2022/04/07 05:57:06;;;;;;;3.73;3.37;;;;;;;;;;5033912;28;20419;-49
2022/04/07 05:59:32;;;;;;;3.77;3.47;;;;;;;;;;5033205;28;20788;-49
2022/04/07 06:01:58;;;;;;;3.87;3.37;;;;;;;;;;5032033;28;20470;-49
2022/04/07 06:04:24;;;;;;;3.80;3.30;;;;;;;;;;5033284;28;20975;-47
2022/04/07 06:06:50;;;;;;;2.90;2.70;;;;;;;;;;5033430;28;20437;-49
2022/04/07 06:09:16;;;;;;;3.53;3.10;;;;;;;;;;5032960;28;21090;-47
2022/04/07 06:11:42;;;;;;;4.53;3.13;;;;;;;;;;5032008;28;20400;-48
2022/04/07 06:14:08;;;;;;;3.60;3.40;;;;;;;;;;5032618;28;20541;-48
2022/04/07 06:16:34;;;;;;;3.93;3.53;;;;;;;;;;5032370;28;20400;-49
2022/04/07 06:19:00;;;;;;;7.07;3.57;;;;;;;;;;5033190;28;20493;-50
2022/04/07 06:21:29;;;;;;;4.10;3.70;;;;;;;;;;5033048;28;20398;-48
2022/04/07 06:23:55;;;;;;;3.30;3.00;;;;;;;;;;5032860;28;20456;-48
2022/04/07 06:26:21;;;;;;;2.80;2.60;;;;;;;;;;5033017;28;20429;-48
2022/04/07 06:28:47;;;;;;;3.70;2.70;;;;;;;;;;5033098;28;20888;-48
2022/04/07 06:31:13;;;;;;;3.80;3.40;;;;;;;;;;5032722;28;20460;-48
2022/04/07 06:33:39;;;;;;;6.40;3.67;;;;;;;;;;5032901;28;20433;-49
2022/04/07 06:36:06;;;;;;;4.10;3.70;;;;;;;;;;5032932;28;20516;-48
2022/04/07 06:38:33;;;;;;;4.10;3.47;;;;;;;;;;5032651;28;20800;-49
2022/04/07 06:40:59;;;;;;;4.90;3.97;;;;;;;;;;5032551;28;20401;-47
2022/04/07 06:43:25;;;;;;;10.03;4.27;;;;;;;;;;5032908;28;20931;-48
2022/04/07 06:45:51;;;;;;;7.13;4.23;;;;;;;;;;5033000;28;20402;-49
2022/04/07 06:48:17;;;;;;;6.93;4.00;;;;;;;;;;5030899;28;20913;-48
2022/04/07 06:50:44;;;;;;;3.83;3.53;;;;;;;;;;5029011;28;20493;-48
2022/04/07 06:53:13;;;;;;;4.23;3.80;;;;;;;;;;5033309;28;20924;-49
2022/04/07 06:55:39;;;;;;;5.70;3.37;;;;;;;;;;5033553;28;20488;-50
2022/04/07 06:58:06;;;;;;;3.60;3.30;;;;;;;;;;5033412;28;20765;-50
2022/04/07 07:00:33;;;;;;;4.03;3.63;;;;;;;;;;5032479;28;20411;-48
2022/04/07 07:03:00;;;;;;;5.17;4.33;;;;;;;;;;5032229;28;20418;-48
2022/04/07 07:05:27;;;;;;;4.10;3.33;;;;;;;;;;5032175;28;20417;-47
2022/04/07 07:07:53;;;;;;;3.13;2.93;;;;;;;;;;5031942;28;20421;-48
2022/04/07 07:10:20;;;;;;;4.83;3.17;;;;;;;;;;5031733;28;20467;-48
2022/04/07 07:12:47;;;;;;;2.90;2.67;;;;;;;;;;5031879;28;20432;-48
2022/04/07 07:15:13;;;;;;;2.27;2.17;;;;;;;;;;5032071;28;20390;-48
2022/04/07 07:17:40;;;;;;;2.30;2.10;;;;;;;;;;5031973;28;20409;-48
2022/04/07 07:20:12;;;;;;;2.50;2.30;;;;;;;;;;5031677;28;20416;-49
2022/04/07 07:22:42;;;;;;;2.23;2.03;;;;;;;;;;5031830;28;20503;-48
2022/04/07 07:25:08;;;;;;;2.50;2.13;;;;;;;;;;5030757;28;20417;-48
2022/04/07 07:27:38;;;;;;;2.10;2.00;;;;;;;;;;5028198;28;20761;-48
2022/04/07 07:30:06;;;;;;;2.43;2.23;;;;;;;;;;5031472;28;20958;-48
2022/04/07 07:32:32;;;;;;;4.30;2.20;;;;;;;;;;5031555;28;20405;-49
2022/04/07 07:35:01;;;;;;;2.80;2.60;;;;;;;;;;5031493;28;20404;-47
2022/04/07 07:37:26;;;;;;;2.60;2.40;;;;;;;;;;5031652;28;20887;-47
2022/04/07 07:39:52;;;;;;;2.30;2.10;;;;;;;;;;5031471;28;20409;-47
2022/04/07 07:42:18;;;;;;;1.90;1.80;;;;;;;;;;5032009;28;20402;-46
2022/04/07 07:44:44;;;;;;;5.67;2.30;;;;;;;;;;5031678;28;20555;-46
2022/04/07 07:47:10;;;;;;;3.13;2.47;;;;;;;;;;5031657;28;20460;-46
2022/04/07 07:49:36;;;;;;;5.00;2.13;;;;;;;;;;5030897;28;20464;-46
2022/04/07 07:52:03;;;;;;;2.10;1.90;;;;;;;;;;5031380;28;20402;-46
2022/04/07 07:54:29;;;;;;;2.30;2.10;;;;;;;;;;5031569;28;20422;-45
2022/04/07 07:56:55;;;;;;;2.90;2.20;;;;;;;;;;5031700;28;20947;-46
2022/04/07 07:59:21;;;;;;;2.93;2.17;;;;;;;;;;5031258;28;20415;-50
2022/04/07 08:01:48;;;;;;;3.60;2.00;;;;;;;;;;5032027;28;20437;-46
2022/04/07 08:04:15;;;;;;;2.07;1.97;;;;;;;;;;5031450;28;20721;-46
2022/04/07 08:06:41;;;;;;;3.97;2.23;;;;;;;;;;5031367;28;20786;-47
2022/04/07 08:09:08;;;;;;;2.60;1.80;;;;;;;;;;5031307;28;20883;-48
2022/04/07 08:11:34;;;;;;;2.73;1.90;;;;;;;;;;5031218;28;20404;-46
2022/04/07 08:14:00;;;;;;;1.90;1.80;;;;;;;;;;5031204;28;20432;-47
2022/04/07 08:16:29;;;;;;;1.90;1.80;;;;;;;;;;5031072;28;20404;-46
2022/04/07 08:18:55;;;;;;;1.63;1.53;;;;;;;;;;5033542;28;20433;-46
2022/04/07 08:21:21;;;;;;;1.80;1.70;;;;;;;;;;5034995;28;20451;-46
2022/04/07 08:23:47;;;;;;;1.70;1.60;;;;;;;;;;5034319;28;20447;-46
2022/04/07 08:26:12;;;;;;;1.77;1.67;;;;;;;;;;5035151;28;20408;-46
2022/04/07 08:28:40;;;;;;;1.47;1.37;;;;;;;;;;5034488;28;20418;-47
2022/04/07 08:31:06;;;;;;;1.70;1.60;;;;;;;;;;5034618;28;21017;-46
2022/04/07 08:33:31;;;;;;;1.70;1.60;;;;;;;;;;5034847;28;20517;-46
2022/04/07 08:35:57;;;;;;;1.50;1.40;;;;;;;;;;5035056;28;20530;-46
2022/04/07 08:38:23;;;;;;;1.63;1.40;;;;;;;;;;5034949;28;20406;-46
2022/04/07 08:40:51;;;;;;;1.60;1.50;;;;;;;;;;5034724;28;20411;-47
2022/04/07 08:43:17;;;;;;;1.40;1.30;;;;;;;;;;5034876;28;20427;-47
2022/04/07 08:45:44;;;;;;;6.00;1.40;;;;;;;;;;5033420;28;20436;-47
2022/04/07 08:48:11;;;;;;;2.17;1.80;;;;;;;;;;5015182;28;20407;-49
2022/04/07 08:50:38;;;;;;;1.77;1.67;;;;;;;;;;5032160;28;20465;-46
2022/04/07 08:53:04;;;;;;;1.63;1.50;;;;;;;;;;5034661;28;20467;-47
2022/04/07 08:55:30;;;;;;;1.87;1.60;;;;;;;;;;5034606;28;20436;-46
2022/04/07 08:57:56;;;;;;;1.63;1.53;;;;;;;;;;5034275;28;20858;-49
2022/04/07 09:00:22;;;;;;;1.77;1.67;;;;;;;;;;5034044;28;20508;-46
2022/04/07 09:02:48;;;;;;;1.63;1.53;;;;;;;;;;5034106;28;20440;-47
2022/04/07 09:05:14;;;;;;;1.43;1.33;;;;;;;;;;5034228;28;20423;-46
2022/04/07 09:07:40;;;;;;;2.00;1.20;;;;;;;;;;5034341;28;20403;-47
2022/04/07 09:10:06;;;;;;;2.20;1.37;;;;;;;;;;5033624;28;20502;-47
2022/04/07 09:12:38;;;;;;;1.33;1.23;;;;;;;;;;5033904;28;20428;-46
2022/04/07 09:15:04;;;;;;;1.50;1.40;;;;;;;;;;5032834;28;20420;-47
2022/04/07 09:17:31;;;;;;;1.57;1.47;;;;;;;;;;5034251;28;20486;-48
2022/04/07 09:19:57;;;;;;;2.07;1.70;;;;;;;;;;5033798;28;20421;-48
2022/04/07 09:22:30;;;;;;;2.20;1.53;;;;;;;;;;5034126;28;20410;-48
2022/04/07 09:24:58;;;;;;;1.80;1.70;;;;;;;;;;5034087;28;20951;-48
2022/04/07 09:27:25;;;;;;;2.07;1.97;;;;;;;;;;5033992;28;20414;-48
2022/04/07 09:29:55;;;;;;;2.90;2.70;;;;;;;;;;5033271;28;21092;-48
2022/04/07 09:32:25;;;;;;;2.80;2.60;;;;;;;;;;5033582;28;20418;-47
2022/04/07 09:34:57;;;;;;;2.60;2.40;;;;;;;;;;5033758;28;20512;-48
2022/04/07 09:37:25;;;;;;;3.37;3.07;;;;;;;;;;5014240;28;20403;-48
2022/04/07 09:40:03;;;;;;;3.30;1.40;;;;;;;;;;5012707;28;20883;-47
2022/04/07 09:42:29;;;;;;;3.90;1.30;;;;;;;;;;5012363;28;20930;-47
2022/04/07 09:45:00;;;;;;;2.03;1.13;;;;;;;;;;5014020;28;20908;-47
2022/04/07 09:47:36;;;;;;;1.40;1.30;;;;;;;;;;5013876;28;20414;-48
2022/04/07 09:50:03;;;;;;;3.47;1.23;;;;;;;;;;5014278;28;20469;-48
2022/04/07 09:52:30;;;;;;;5.40;1.40;;;;;;;;;;5033354;28;20402;-48
2022/04/07 09:54:57;;;;;;;1.20;0.90;;;;;;;;;;5033700;28;20408;-48
2022/04/07 09:57:25;;;;;;;1.17;1.00;;;;;;;;;;5033371;28;20452;-48
2022/04/07 09:59:51;;;;;;;1.40;1.07;;;;;;;;;;5033309;28;20418;-48
2022/04/07 10:02:18;;;;;;;1.67;1.20;;;;;;;;;;5033170;28;20473;-47
2022/04/07 10:04:44;;;;;;;1.27;1.20;;;;;;;;;;5033210;28;20553;-48
2022/04/07 10:07:12;;;;;;;4.87;1.97;;;;;;;;;;5033062;28;20503;-48
2022/04/07 10:09:42;;;;;;;2.43;1.53;;;;;;;;;;5033051;28;20967;-48
2022/04/07 10:12:09;;;;;;;7.10;1.90;;;;;;;;;;5038417;28;20568;-47
2022/04/07 10:14:37;;;;;;;3.40;1.80;;;;;;;;;;5036507;28;20904;-48
2022/04/07 10:17:03;;;;;;;2.50;1.80;;;;;;;;;;5036132;28;20418;-48
2022/04/07 10:19:48;;;;;;;2.63;2.40;;;;;;;;;;5041203;28;20426;-48
2022/04/07 10:22:19;;;;;;;2.10;1.87;;;;;;;;;;5034139;28;20510;-48
2022/04/07 10:24:55;;;;;;;3.20;1.80;;;;;;;;;;5033309;28;20769;-48
2022/04/07 10:27:23;;;;;;;2.73;1.97;;;;;;;;;;5035697;28;20472;-47
2022/04/07 10:30:10;;;;;;;2.53;1.63;;;;;;;;;;5052525;28;20456;-48
2022/04/07 10:32:50;;;;;;;2.60;1.80;;;;;;;;;;5013020;28;20975;-48
2022/04/07 10:35:28;;;;;;;1.70;1.60;;;;;;;;;;5014811;28;20405;-47
2022/04/07 10:37:55;;;;;;;2.00;1.90;;;;;;;;;;5033217;28;20909;-49
2022/04/07 10:40:40;;;;;;;1.73;1.63;;;;;;;;;;5030557;28;20452;-48
2022/04/07 10:43:13;;;;;;;4.00;2.10;;;;;;;;;;5032402;28;20422;-50
2022/04/07 10:45:40;;;;;;;3.87;2.07;;;;;;;;;;5040588;28;20500;-50
2022/04/07 10:48:18;;;;;;;3.00;2.80;;;;;;;;;;5032461;28;20414;-47
2022/04/07 10:50:47;;;;;;;4.50;2.70;;;;;;;;;;5031949;28;20454;-47
2022/04/07 10:53:24;;;;;;;2.50;2.10;;;;;;;;;;5032472;28;20472;-47
2022/04/07 10:55:54;;;;;;;2.90;2.20;;;;;;;;;;5032135;28;20418;-48
2022/04/07 10:58:20;;;;;;;2.23;2.03;;;;;;;;;;5032421;28;20422;-49
2022/04/07 11:00:46;;;;;;;2.90;1.40;;;;;;;;;;5032153;28;20453;-49
2022/04/07 11:03:13;;;;;;;2.70;1.60;;;;;;;;;;5032319;28;20926;-49
2022/04/07 11:05:52;;;;;;;2.13;1.60;;;;;;;;;;5029130;28;20470;-50
2022/04/07 11:08:21;;;;;;;1.70;1.60;;;;;;;;;;5032430;28;20397;-51
2022/04/07 11:10:48;;;;;;;2.63;1.47;;;;;;;;;;5031857;28;20461;-51
2022/04/07 11:13:14;;;;;;;3.10;1.30;;;;;;;;;;5031999;28;20501;-50
2022/04/07 11:15:43;;;;;;;1.50;1.20;;;;;;;;;;5032587;28;20410;-50
2022/04/07 11:18:20;;;;;;;2.10;1.60;;;;;;;;;;5033005;28;20558;-49
2022/04/07 11:21:02;;;;;;;1.47;1.37;;;;;;;;;;5016958;28;20454;-50
2022/04/07 11:23:41;;;;;;;1.97;1.30;;;;;;;;;;5032144;28;20437;-50
2022/04/07 11:26:33;;;;;;;1.57;1.47;;;;;;;;;;5031823;28;20776;-49
2022/04/07 11:29:03;;;;;;;1.83;1.30;;;;;;;;;;5032359;28;20937;-50
2022/04/07 11:31:48;;;;;;;1.53;1.20;;;;;;;;;;5031835;28;20480;-50
2022/04/07 11:34:33;;;;;;;3.30;1.30;;;;;;;;;;5032232;28;20427;-50
2022/04/07 11:36:59;;;;;;;1.30;1.10;;;;;;;;;;5032830;28;20410;-49
2022/04/07 11:39:25;;;;;;;1.40;1.10;;;;;;;;;;5031961;28;20898;-47
2022/04/07 11:41:54;;;;;;;2.20;2.03;;;;;;;;;;5031567;28;20383;-47
2022/04/07 11:44:24;;;;;;;2.60;1.70;;;;;;;;;;5030762;28;20492;-48
2022/04/07 11:46:50;;;;;;;5.40;1.40;;;;;;;;;;5031351;28;20402;-46
2022/04/07 11:49:17;;;;;;;1.67;1.57;;;;;;;;;;5030732;28;20469;-47
2022/04/07 11:51:45;;;;;;;3.57;2.00;;;;;;;;;;5031685;28;20435;-47
2022/04/07 11:54:15;;;;;;;1.80;1.53;;;;;;;;;;5035796;28;20504;-49
2022/04/07 11:56:41;;;;;;;1.40;1.30;;;;;;;;;;5035853;28;20390;-49
2022/04/07 11:59:12;;;;;;;4.20;1.73;;;;;;;;;;5035735;28;20892;-49
2022/04/07 12:01:40;;;;;;;2.60;1.47;;;;;;;;;;5035693;28;20767;-48
2022/04/07 12:04:09;;;;;;;1.80;1.70;;;;;;;;;;5035538;28;20940;-48
2022/04/07 12:06:36;;;;;;;2.03;1.40;;;;;;;;;;5035284;28;20499;-48
2022/04/07 12:09:03;;;;;;;5.13;1.40;;;;;;;;;;5035662;28;20403;-50
2022/04/07 12:11:31;;;;;;;2.17;1.30;;;;;;;;;;5035085;28;20456;-49
2022/04/07 12:13:58;;;;;;;1.50;1.40;;;;;;;;;;5035350;28;20441;-49
2022/04/07 12:16:24;;;;;;;2.03;1.50;;;;;;;;;;5035145;28;20419;-49
2022/04/07 12:18:53;;;;;;;2.43;1.20;;;;;;;;;;5039009;28;20452;-49
2022/04/07 12:21:19;;;;;;;1.60;1.50;;;;;;;;;;5035226;28;20826;-50
2022/04/07 12:23:47;;;;;;;1.83;1.73;;;;;;;;;;5035210;28;20518;-49
2022/04/07 12:26:14;;;;;;;1.83;1.40;;;;;;;;;;5035329;28;20496;-49
2022/04/07 12:28:40;;;;;;;4.10;1.30;;;;;;;;;;5035229;28;20468;-51
2022/04/07 12:31:22;;;;;;;1.50;1.40;;;;;;;;;;5034059;28;20458;-49
2022/04/07 12:33:49;;;;;;;1.40;1.30;;;;;;;;;;5033888;28;20448;-49
2022/04/07 12:36:16;;;;;;;1.30;1.20;;;;;;;;;;5034884;28;20835;-47
2022/04/07 12:38:58;;;;;;;2.90;1.37;;;;;;;;;;5035150;28;20412;-49
2022/04/07 12:41:35;;;;;;;2.30;1.23;;;;;;;;;;5035069;28;20669;-46
2022/04/07 12:44:00;;;;;;;2.70;1.40;;;;;;;;;;5034778;28;20434;-46
2022/04/07 12:46:42;;;;;;;2.50;1.53;;;;;;;;;;5034617;28;20493;-50
2022/04/07 12:49:08;;;;;;;6.07;2.70;;;;;;;;;;5034150;28;20424;-50
2022/04/07 12:51:35;;;;;;;4.07;2.90;;;;;;;;;;5034448;28;20446;-48
2022/04/07 12:54:27;;;;;;;4.90;2.57;;;;;;;;;;5034584;28;20971;-48
2022/04/07 12:57:06;;;;;;;6.87;2.50;;;;;;;;;;5034188;28;20496;-48
2022/04/07 12:59:32;;;;;;;2.20;2.10;;;;;;;;;;5034526;28;20485;-48
2022/04/07 13:01:58;;;;;;;4.90;2.77;;;;;;;;;;5034401;28;20482;-49
2022/04/07 13:04:44;;;;;;;4.20;2.60;;;;;;;;;;5033943;28;20436;-46
2022/04/07 13:07:10;;;;;;;6.73;2.63;;;;;;;;;;5034546;28;20409;-46
2022/04/07 13:09:36;;;;;;;10.87;2.73;;;;;;;;;;5034159;28;20438;-46
2022/04/07 13:12:02;;;;;;;4.40;3.00;;;;;;;;;;5034315;28;20415;-46
2022/04/07 13:14:28;;;;;;;3.33;2.73;;;;;;;;;;5034116;28;20446;-46
2022/04/07 13:16:54;;;;;;;3.27;2.27;;;;;;;;;;5034490;28;20401;-46
2022/04/07 13:19:20;;;;;;;3.17;2.80;;;;;;;;;;5043568;28;20409;-47
2022/04/07 13:21:46;;;;;;;3.20;2.30;;;;;;;;;;5053987;28;20409;-46
2022/04/07 13:24:12;;;;;;;8.00;2.80;;;;;;;;;;5054035;28;20421;-46
2022/04/07 13:26:38;;;;;;;9.10;2.50;;;;;;;;;;5054510;28;20405;-47
2022/04/07 13:29:04;;;;;;;2.63;1.80;;;;;;;;;;5053644;28;20405;-46
2022/04/07 13:31:30;;;;;;;2.33;1.90;;;;;;;;;;5053818;28;20536;-48
2022/04/07 13:33:58;;;;;;;3.10;1.73;;;;;;;;;;5053736;28;20961;-49
2022/04/07 13:36:24;;;;;;;4.33;1.20;;;;;;;;;;5043313;28;20986;-45
2022/04/07 13:38:50;;;;;;;2.33;1.60;;;;;;;;;;5033701;28;20774;-47
2022/04/07 13:41:16;;;;;;;1.87;1.50;;;;;;;;;;5029832;28;20434;-46
2022/04/07 13:43:42;;;;;;;3.77;1.33;;;;;;;;;;5033413;28;20448;-46
2022/04/07 13:46:08;;;;;;;4.97;1.57;;;;;;;;;;5033947;28;20415;-46
2022/04/07 13:48:35;;;;;;;2.93;1.40;;;;;;;;;;5033482;28;20420;-47
2022/04/07 13:51:01;;;;;;;3.87;1.70;;;;;;;;;;5034465;28;20543;-47
2022/04/07 13:53:27;;;;;;;1.40;1.30;;;;;;;;;;5032563;28;20534;-47
2022/04/07 13:55:53;;;;;;;4.83;1.90;;;;;;;;;;5033344;28;20422;-48
2022/04/07 13:58:19;;;;;;;6.20;3.00;;;;;;;;;;5033642;28;20371;-47
2022/04/07 14:00:45;;;;;;;4.07;1.90;;;;;;;;;;5033063;28;20402;-47
2022/04/07 14:03:11;;;;;;;4.30;1.90;;;;;;;;;;5033470;28;20400;-50
2022/04/07 14:05:37;;;;;;;5.40;1.77;;;;;;;;;;5032086;28;20769;-50
2022/04/07 14:08:03;;;;;;;3.00;2.10;;;;;;;;;;5033432;28;20525;-49
2022/04/07 14:10:29;;;;;;;6.90;1.87;;;;;;;;;;5032838;28;20456;-50
2022/04/07 14:12:55;;;;;;;4.53;2.20;;;;;;;;;;5033114;28;20661;-50
2022/04/07 14:15:23;;;;;;;8.93;2.23;;;;;;;;;;5032350;28;20505;-50
2022/04/07 14:17:49;;;;;;;6.00;2.40;;;;;;;;;;5032676;28;20467;-48
2022/04/07 14:20:15;;;;;;;5.97;2.03;;;;;;;;;;5048980;28;20438;-48
2022/04/07 14:22:41;;;;;;;5.77;2.47;;;;;;;;;;5039763;28;20945;-48
2022/04/07 14:25:08;;;;;;;6.60;2.50;;;;;;;;;;5031944;28;20383;-49
2022/04/07 14:27:34;;;;;;;2.93;1.77;;;;;;;;;;5033132;28;20416;-47
2022/04/07 14:30:00;;;;;;;3.63;1.80;;;;;;;;;;5032543;28;20483;-48
2022/04/07 14:32:26;;;;;;;6.00;2.30;;;;;;;;;;5032993;28;20413;-50
2022/04/07 14:34:52;;;;;;;4.23;2.10;;;;;;;;;;5032738;28;20517;-50
2022/04/07 14:37:18;;;;;;;4.70;2.53;;;;;;;;;;5032708;28;20764;-49
2022/04/07 14:39:44;;;;;;;4.23;2.10;;;;;;;;;;5032556;28;20413;-50
2022/04/07 14:42:10;;;;;;;5.87;2.00;;;;;;;;;;5032632;28;20448;-49
2022/04/07 14:44:36;;;;;;;6.63;2.47;;;;;;;;;;5032862;28;20430;-49